createdAt,value
2023-02-02T00:10:58.728Z,5.8
2023-02-02T00:22:58.621Z,5.8
2023-02-02T00:34:58.738Z,5.8
2023-02-02T00:46:58.753Z,5.8
2023-02-02T00:58:58.732Z,5.7
2023-02-02T01:10:58.689Z,5.7
2023-02-02T01:22:58.613Z,5.7
2023-02-02T01:34:58.735Z,5.7
2023-02-02T01:46:58.634Z,5.6
2023-02-02T01:58:58.615Z,5.5
2023-02-02T02:10:58.740Z,5.4
2023-02-02T02:22:58.619Z,5.2
2023-02-02T02:34:58.708Z,5.1
2023-02-02T02:46:58.691Z,5.1
2023-02-02T02:58:58.613Z,5.1
2023-02-02T03:10:58.739Z,5.1
2023-02-02T03:22:58.618Z,5.0
2023-02-02T03:34:58.684Z,5.1
2023-02-02T03:46:58.735Z,5.1
2023-02-02T03:58:58.610Z,5.1
2023-02-02T04:10:58.700Z,5.1
2023-02-02T04:22:58.617Z,5.1
2023-02-02T04:34:58.721Z,5.0
2023-02-02T04:46:58.728Z,5.0
2023-02-02T04:58:58.628Z,5.0
2023-02-02T05:10:58.625Z,4.9
2023-02-02T05:22:58.619Z,4.9
2023-02-02T05:34:58.618Z,4.9
2023-02-02T05:46:58.709Z,4.9
2023-02-02T05:58:58.620Z,4.8
2023-02-02T06:10:58.696Z,4.9
2023-02-02T06:22:58.616Z,4.8
2023-02-02T06:34:58.709Z,4.8
2023-02-02T06:46:58.701Z,4.8
2023-02-02T06:58:58.625Z,4.9
2023-02-02T07:11:13.104Z,4.9
2023-02-02T07:22:58.620Z,5.0
2023-02-02T07:34:58.626Z,5.1
2023-02-02T07:46:58.625Z,5.1
2023-02-02T07:58:58.620Z,5.1
2023-02-02T08:10:58.705Z,5.2
2023-02-02T08:22:58.698Z,5.2
2023-02-02T08:34:58.734Z,5.3
2023-02-02T08:46:58.647Z,5.2
2023-02-02T08:58:58.657Z,5.2
2023-02-02T09:10:58.682Z,5.2
2023-02-02T09:22:58.611Z,5.2
2023-02-02T09:34:58.739Z,5.3
2023-02-02T09:46:58.634Z,5.3
2023-02-02T09:59:06.976Z,5.4
2023-02-02T10:10:58.729Z,5.4
2023-02-02T10:22:58.629Z,5.4
2023-02-02T10:35:12.552Z,5.5
2023-02-02T10:46:58.680Z,5.6
2023-02-02T10:58:58.621Z,5.8
2023-02-02T11:10:58.617Z,5.9
2023-02-02T11:22:58.724Z,5.9
2023-02-02T11:34:58.644Z,6.0
2023-02-02T11:46:58.771Z,6.0
2023-02-02T11:58:58.633Z,6.0
2023-02-02T12:10:58.708Z,6.1
2023-02-02T12:22:58.618Z,6.1
2023-02-02T12:34:58.716Z,6.3
2023-02-02T12:46:58.738Z,6.3
2023-02-02T12:58:58.746Z,6.4
2023-02-02T13:10:58.718Z,6.5
2023-02-02T13:22:58.640Z,6.5
2023-02-02T13:34:58.682Z,6.5
2023-02-02T13:46:58.721Z,6.6
2023-02-02T13:58:58.708Z,6.6
2023-02-02T14:10:58.725Z,6.6
2023-02-02T14:22:58.621Z,6.7
2023-02-02T14:34:58.718Z,6.7
2023-02-02T14:46:58.615Z,6.6
2023-02-02T14:58:58.687Z,6.7
2023-02-02T15:10:58.689Z,6.7
2023-02-02T15:22:58.611Z,6.8
2023-02-02T15:34:58.693Z,6.8
2023-02-02T15:46:58.780Z,6.8
2023-02-02T15:58:58.685Z,6.8
2023-02-02T16:10:58.626Z,6.7
2023-02-02T16:22:58.617Z,6.6
2023-02-02T16:34:58.773Z,6.6
2023-02-02T16:46:58.734Z,6.7
2023-02-02T16:58:58.768Z,6.7
2023-02-02T17:10:58.683Z,6.7
2023-02-02T17:22:58.619Z,6.7
2023-02-02T17:34:58.727Z,6.8
2023-02-02T17:46:58.719Z,6.7
2023-02-02T17:58:58.676Z,6.6
2023-02-02T18:10:58.717Z,6.6
2023-02-02T18:22:58.616Z,6.4
2023-02-02T18:34:58.710Z,6.4
2023-02-02T18:46:58.744Z,6.4
2023-02-02T18:58:58.729Z,6.3
2023-02-02T19:10:58.723Z,6.3
2023-02-02T19:22:58.617Z,6.3
2023-02-02T19:34:58.715Z,6.3
2023-02-02T19:46:58.726Z,6.3
2023-02-02T19:58:58.730Z,6.3
2023-02-02T20:10:58.697Z,6.2
2023-02-02T20:22:58.624Z,6.3
2023-02-02T20:34:58.711Z,6.2
2023-02-02T20:46:58.720Z,6.3
2023-02-02T20:58:58.629Z,6.3
2023-02-02T21:10:58.734Z,6.3
2023-02-02T21:22:58.617Z,6.0
2023-02-02T21:34:58.619Z,5.8
2023-02-02T21:46:58.691Z,5.8
2023-02-02T21:58:58.688Z,5.7
2023-02-02T22:10:58.626Z,5.8
2023-02-02T22:22:58.636Z,5.7
2023-02-02T22:34:58.715Z,5.7
2023-02-02T22:46:58.627Z,5.7
2023-02-02T22:58:58.712Z,5.7
2023-02-02T23:10:58.782Z,5.6
2023-02-02T23:22:58.704Z,5.6
2023-02-02T23:34:58.643Z,5.5
2023-02-02T23:46:58.785Z,5.5
2023-02-02T23:58:58.630Z,5.4
